Time;durP1;ratioP1;P1;durP2;ratioP2;P2;SDS_P1;SDS_P2;PMS_P1;PMS_P2;Temp;Humidity;BMP_temperature;BMP_pressure;BME280_temperature;BME280_humidity;BME280_pressure;Samples;Min_cycle;Max_cycle;Signal;HPM_P1;HPM_P2
2023/12/28 00:01:08;;;;;;;3.90;3.55;;;;;;;;;;4736359;30;20091;-96
2023/12/28 00:03:34;;;;;;;8.52;3.40;;;;;;;;;;4733239;30;20052;-95
2023/12/28 00:06:10;;;;;;;9.00;3.97;;;;;;;;;;4749978;30;20057;-95
2023/12/28 00:08:36;;;;;;;4.03;3.17;;;;;;;;;;4735701;30;20080;-94
2023/12/28 00:11:08;;;;;;;5.53;3.42;;;;;;;;;;4733671;30;20057;-95
2023/12/28 00:13:39;;;;;;;3.53;2.72;;;;;;;;;;4736719;30;20495;-95
2023/12/28 00:16:28;;;;;;;3.45;2.78;;;;;;;;;;4752071;30;20082;-94
2023/12/28 00:18:54;;;;;;;3.88;3.30;;;;;;;;;;4732456;30;20065;-95
2023/12/28 00:22:00;;;;;;;9.18;3.47;;;;;;;;;;4804037;24;20067;-95
2023/12/28 00:24:29;;;;;;;4.75;3.17;;;;;;;;;;4757896;30;20056;-95
2023/12/28 00:27:10;;;;;;;5.32;3.45;;;;;;;;;;4755593;30;20059;-95
2023/12/28 00:29:44;;;;;;;8.40;2.75;;;;;;;;;;4771812;30;20079;-95
2023/12/28 00:32:23;;;;;;;7.72;3.08;;;;;;;;;;4772393;30;20051;-95
2023/12/28 00:35:16;;;;;;;8.43;3.45;;;9.40;99.90;;;;;;4778056;30;20051;-95
2023/12/28 00:37:53;;;;;;;10.38;3.17;;;;;;;;;;4803924;30;20574;-95
2023/12/28 00:40:51;;;;;;;3.92;2.75;;;;;;;;;;4768936;30;20094;-95
2023/12/28 00:43:19;;;;;;;6.45;3.13;;;;;;;;;;4753934;30;20052;-96
2023/12/28 00:45:51;;;;;;;8.32;3.35;;;;;;;;;;4738340;30;20058;-95
2023/12/28 00:48:20;;;;;;;12.52;3.28;;;;;;;;;;4737868;30;20048;-96
2023/12/28 00:50:48;;;;;;;6.90;3.33;;;;;;;;;;4738172;30;20055;-95
2023/12/28 00:53:34;;;;;;;8.88;3.20;;;;;;;;;;4753672;30;20091;-96
2023/12/28 00:58:40;;;;;;;9.13;3.15;;;;;;;;;;4777788;24;20135;-95
2023/12/28 01:03:37;;;;;;;14.55;3.17;;;;;;;;;;4786989;24;20066;-95
2023/12/28 01:06:32;;;;;;;11.35;3.33;;;;;;;;;;4788171;24;20541;-95
2023/12/28 01:09:08;;;;;;;12.20;3.88;;;;;;;;;;4736902;30;20300;-94
2023/12/28 01:11:50;;;;;;;4.55;2.80;;;;;;;;;;4806231;24;20058;-95
2023/12/28 01:14:55;;;;;;;6.80;2.97;;;;;;;;;;4810444;24;20043;-95
2023/12/28 01:17:33;;;;;;;6.32;2.88;;;;;;;;;;4736149;30;20056;-95
2023/12/28 01:20:00;;;;;;;10.48;4.15;;;;;;;;;;4719022;30;20088;-95
2023/12/28 01:22:27;;;;;;;12.90;3.75;;;;;;;;;;4718334;30;20045;-95
2023/12/28 01:25:00;;;;;;;8.57;2.55;;;;;;;;;;4757634;24;20060;-95
2023/12/28 01:27:30;;;;;;;9.30;3.40;;;;;;;;;;4754757;30;20082;-95
2023/12/28 01:29:59;;;;;;;8.25;3.42;;;;;;;;;;4768506;30;20048;-95
2023/12/28 01:32:34;;;;;;;5.70;2.83;;;;;;;;;;4752112;30;20067;-95
2023/12/28 01:35:04;;;;;;;9.63;4.03;;;;;;;;;;4737483;30;20060;-95
2023/12/28 01:37:45;;;;;;;19.35;5.38;;;;;;;;;;4786993;24;20052;-96
2023/12/28 01:40:19;;;;;;;10.63;3.22;;;;;;;;;;4772207;30;20055;-95
2023/12/28 01:42:55;;;;;;;11.88;4.53;;;;;;;;;;4774584;30;20086;-95
2023/12/28 01:45:27;;;;;;;10.27;3.05;;;;;;;;;;4788825;30;20058;-95
2023/12/28 01:48:02;;;;;;;11.57;3.55;;;;;;;;;;4790226;30;20493;-94
2023/12/28 01:50:47;;;;;;;9.25;3.20;;;;;;;;;;4803524;30;20590;-94
2023/12/28 01:53:14;;;;;;;12.90;3.67;;;;;;;;;;4767044;30;20058;-95
2023/12/28 01:55:42;;;;;;;12.95;3.78;;;;;;;;;;4771558;30;20052;-94
2023/12/28 01:58:08;;;;;;;9.95;2.90;;;;;;;;;;4755724;30;20058;-95
2023/12/28 02:00:37;;;;;;;15.18;4.07;;;;;;;;;;4756334;30;20103;-94
2023/12/28 02:03:07;;;;;;;13.00;3.40;;;;;;;;;;4757325;30;20121;-95
2023/12/28 02:05:33;;;;;;;18.23;4.28;;;;;;;;;;4756068;30;20052;-96
2023/12/28 02:08:12;;;;;;;13.25;4.60;;;;;;;;;;4756592;30;20058;-95
2023/12/28 02:10:39;;;;;;;11.50;4.05;;;;;;;;;;4755571;30;20128;-95
2023/12/28 02:13:05;;;;;;;13.43;3.75;;;;;;;;;;4751287;24;20051;-94
2023/12/28 02:15:38;;;;;;;18.30;4.13;;;;;;;;;;4762979;24;20067;-95
2023/12/28 02:18:12;;;;;;;26.70;5.35;;;;;;;;;;4770586;30;20058;-95
2023/12/28 02:20:50;;;;;;;11.25;2.63;;;;;;;;;;4772165;30;20055;-95
2023/12/28 02:23:17;;;;;;;17.35;4.03;;;;;;;;;;4754648;30;20056;-96
2023/12/28 02:25:44;;;;;;;9.25;3.65;;;;;;;;;;4770279;30;20128;-95
2023/12/28 02:28:12;;;;;;;18.25;4.55;;;;;;;;;;4755744;30;20059;-95
2023/12/28 02:30:38;;;;;;;12.88;4.18;;;;;;;;;;4781236;30;20052;-96
2023/12/28 02:33:22;;;;;;;11.70;4.72;;;;;;;;;;4750265;30;20066;-95
2023/12/28 02:36:06;;;;;;;11.20;3.72;;;;;;;;;;4749934;30;20056;-96
2023/12/28 02:38:33;;;;;;;16.58;3.60;;;;;;;;;;4750185;30;20094;-94
2023/12/28 02:41:05;;;;;;;9.07;3.03;;;;;;;;;;4763453;30;20060;-95
2023/12/28 02:43:33;;;;;;;10.90;3.53;;;;;;;;;;4751274;30;20067;-93
2023/12/28 02:45:59;;;;;;;12.35;3.75;;;;;;;;;;4753812;30;20510;-95
2023/12/28 02:48:47;;;;;;;9.27;4.05;;;;;;;;;;4800351;24;20049;-95
2023/12/28 02:51:23;;;;;;;5.53;3.05;;;;;;;;;;4730785;30;20053;-95
2023/12/28 02:54:14;;;;;;;13.38;3.17;;;9.50;99.90;;;;;;4732632;30;20138;-95
2023/12/28 02:56:43;;;;;;;15.55;2.95;;;;;;;;;;4717177;30;20061;-95
2023/12/28 02:59:14;;;;;;;14.63;2.95;;;;;;;;;;4703278;30;20067;-94
2023/12/28 03:01:41;;;;;;;11.05;2.80;;;;;;;;;;4709048;30;20060;-95
2023/12/28 03:04:09;;;;;;;9.00;3.38;;;;;;;;;;4708238;30;20140;-94
2023/12/28 03:06:38;;;;;;;10.95;2.90;;;;;;;;;;4725016;30;20053;-96
2023/12/28 03:09:12;;;;;;;11.10;3.20;;;;;;;;;;4751262;24;20052;-96
2023/12/28 03:11:43;;;;;;;12.93;4.65;;;;;;;;;;4760669;30;20056;-95
2023/12/28 03:14:18;;;;;;;20.13;3.63;;;;;;;;;;4748393;30;20119;-96
2023/12/28 03:39:47;;;;;;;8.40;2.92;;;;;;;;;;4791031;30;20059;-95
2023/12/28 03:42:38;;;;;;;6.45;3.30;;;;;;;;;;4786596;24;20530;-95
2023/12/28 03:45:08;;;;;;;17.38;3.60;;;;;;;;;;4752110;30;20534;-95
2023/12/28 03:47:37;;;;;;;9.07;2.95;;;;;;;;;;4753527;30;20089;-94
2023/12/28 03:50:23;;;;;;;12.02;4.38;;;;;;;;;;4741225;30;20493;-95
2023/12/28 03:52:49;;;;;;;11.60;2.75;;;;;;;;;;4746531;30;20048;-95
2023/12/28 03:55:22;;;;;;;8.50;2.95;;;;;;;;;;4840003;24;20022;-94
2023/12/28 03:57:48;;;;;;;8.02;3.22;;;;;;;;;;4758416;30;20060;-96
2023/12/28 04:00:17;;;;;;;7.55;3.10;;;;;;;;;;4768798;30;20060;-95
2023/12/28 04:02:43;;;;;;;4.38;2.50;;;;;;;;;;4754820;30;20546;-94
2023/12/28 04:05:17;;;;;;;6.70;3.00;;;;;;;;;;4758231;30;20150;-95
2023/12/28 04:08:02;;;;;;;9.90;3.47;;;;;;;;;;4771646;30;20049;-96
2023/12/28 04:10:32;;;;;;;12.70;3.63;;;;;;;;;;4785659;30;20056;-96
2023/12/28 04:13:05;;;;;;;13.40;3.17;;;;;;;;;;4771663;30;20107;-96
2023/12/28 04:15:32;;;;;;;10.02;2.78;;;;;;;;;;4737314;30;20061;-96
2023/12/28 04:18:01;;;;;;;12.27;3.17;;;;;;;;;;4750755;30;20060;-95
2023/12/28 04:20:35;;;;;;;11.50;3.60;;;;;;;;;;4737780;30;20158;-96
2023/12/28 04:23:03;;;;;;;8.48;3.03;;;;;;;;;;4737237;30;20053;-96
2023/12/28 04:25:47;;;;;;;12.20;3.88;;;;;;;;;;4750413;30;20083;-96
2023/12/28 04:28:14;;;;;;;18.83;4.30;;;;;;;;;;4736294;30;20076;-96
2023/12/28 04:30:40;;;;;;;6.15;3.15;;;;;;;;;;4724996;30;20064;-96
2023/12/28 04:33:06;;;;;;;10.20;2.85;;;;;;;;;;4730983;30;20092;-96
2023/12/28 04:35:32;;;;;;;7.82;3.22;;;;;;;;;;4731679;30;20199;-96
2023/12/28 04:38:00;;;;;;;7.75;2.90;;;;;;;;;;4741831;30;20131;-96
2023/12/28 04:40:26;;;;;;;11.55;3.58;;;;;;;;;;4720217;30;20052;-96
2023/12/28 04:42:52;;;;;;;9.05;3.10;;;;;;;;;;4732021;30;20056;-96
2023/12/28 04:45:18;;;;;;;10.73;2.55;;;;;;;;;;4729977;30;20063;-95
2023/12/28 04:47:46;;;;;;;6.47;2.40;;;;;;;;;;4713627;30;20060;-96
2023/12/28 04:50:12;;;;;;;5.55;1.77;;;;;;;;;;4728724;30;20205;-95
2023/12/28 04:52:40;;;;;;;9.05;2.85;;;;;;;;;;4730180;30;20056;-96
2023/12/28 04:55:10;;;;;;;7.50;2.38;;;;;;;;;;4746233;30;20044;-96
2023/12/28 04:57:36;;;;;;;6.72;2.40;;;;;;;;;;4733900;30;20056;-96
2023/12/28 05:00:03;;;;;;;18.20;4.03;;;;;;;;;;4734891;30;20060;-96
2023/12/28 05:02:29;;;;;;;7.28;2.88;;;;;;;;;;4736260;30;20070;-95
2023/12/28 05:04:55;;;;;;;7.97;2.80;;;;;;;;;;4717128;30;20052;-96
2023/12/28 05:07:21;;;;;;;13.73;3.22;;;;;;;;;;4711148;30;20060;-96
2023/12/28 05:09:47;;;;;;;8.57;2.65;;;;;;;;;;4728772;30;20174;-96
2023/12/28 05:12:13;;;;;;;10.93;3.70;;;;;;;;;;4717374;30;20056;-96
2023/12/28 05:14:39;;;;;;;6.97;2.75;;;;;;;;;;4730123;30;20060;-96
2023/12/28 05:17:06;;;;;;;10.18;3.17;;;;;;;;;;4732536;30;20115;-94
2023/12/28 05:19:32;;;;;;;12.70;3.28;;;;;;;;;;4732236;30;20056;-96
2023/12/28 05:21:58;;;;;;;17.75;3.13;;;;;;;;;;4717783;30;20059;-96
2023/12/28 05:24:24;;;;;;;13.02;3.10;;;;;;;;;;4732858;30;20538;-96
2023/12/28 05:26:50;;;;;;;9.27;2.83;;;;;;;;;;4731819;30;20142;-96
2023/12/28 05:29:16;;;;;;;9.10;2.90;;;;;;;;;;4734166;30;20055;-95
2023/12/28 05:31:42;;;;;;;8.73;2.97;;;;;;;;;;4733362;30;20060;-93
2023/12/28 05:34:08;;;;;;;8.20;3.38;;;;;;;;;;4749944;30;20064;-95
2023/12/28 05:36:34;;;;;;;13.70;3.50;;;;;;;;;;4732343;30;20066;-95
2023/12/28 05:39:01;;;;;;;8.07;3.33;;;;;;;;;;4732620;30;20055;-95
2023/12/28 05:41:27;;;;;;;8.32;3.20;;;;;;;;;;4734471;30;20063;-95
2023/12/28 05:43:55;;;;;;;10.48;2.95;;;;;;;;;;4736198;30;20066;-96
2023/12/28 05:46:21;;;;;;;21.92;3.47;;;;;;;;;;4736386;30;20060;-95
2023/12/28 05:48:58;;;;;;;11.18;3.00;;;;;;;;;;4733581;30;20105;-95
2023/12/28 05:51:42;;;;;;;13.23;3.33;;;;;;;;;;4724271;30;20098;-95
2023/12/28 05:54:10;;;;;;;15.68;3.28;;;;;;;;;;4709113;30;20056;-94
2023/12/28 05:56:37;;;;;;;18.10;3.80;;;;;;;;;;4709630;30;20147;-96
2023/12/28 05:59:03;;;;;;;9.77;2.58;;;;;;;;;;4725202;30;20063;-96
2023/12/28 06:01:29;;;;;;;13.88;3.08;;;;;;;;;;4729474;30;20064;-94
2023/12/28 06:03:55;;;;;;;8.82;3.15;;;;;;;;;;4687679;30;20117;-94
2023/12/28 06:06:21;;;;;;;14.93;3.38;;;;;;;;;;4687277;30;20061;-93
2023/12/28 06:08:47;;;;;;;10.73;2.88;;;;;;;;;;4687445;30;20053;-93
2023/12/28 06:11:13;;;;;;;12.73;4.65;;;;;;;;;;4687529;30;20063;-93
2023/12/28 06:13:40;;;;;;;19.95;4.47;;;;;;;;;;4694532;30;20091;-95
2023/12/28 06:16:06;;;;;;;17.10;3.78;;;;;;;;;;4704679;30;20064;-94
2023/12/28 06:18:32;;;;;;;11.68;3.70;;;;;;;;;;4689583;30;20530;-93
2023/12/28 06:20:58;;;;;;;17.90;2.70;;;;;;;;;;4704656;30;20056;-94
2023/12/28 06:23:24;;;;;;;17.10;3.63;;;;;;;;;;4705160;30;20443;-93
2023/12/28 06:25:50;;;;;;;17.58;2.92;;;;;;;;;;4699628;30;20056;-93
2023/12/28 06:28:20;;;;;;;14.18;2.97;;;;;;;;;;4708134;30;20519;-94
2023/12/28 06:30:49;;;;;;;8.02;3.40;;;;;;;;;;4718163;30;20128;-94
2023/12/28 06:33:16;;;;;;;15.02;4.30;;;;;;;;;;4732748;30;20045;-94
2023/12/28 06:35:42;;;;;;;11.65;3.58;;;;;;;;;;4731453;30;20052;-96
2023/12/28 06:38:08;;;;;;;19.33;3.28;;;;;;;;;;4728492;30;20060;-96
2023/12/28 06:40:34;;;;;;;17.10;3.75;;;;;;;;;;4713968;30;20064;-96
2023/12/28 06:43:00;;;;;;;13.25;2.85;;;;;;;;;;4725268;30;20063;-96
2023/12/28 06:45:27;;;;;;;13.77;3.25;;;;;;;;;;4726235;30;20147;-96
2023/12/28 06:47:54;;;;;;;9.82;3.95;;;;;;;;;;4717992;30;20110;-94
2023/12/28 06:50:20;;;;;;;8.38;2.90;;;;;;;;;;4734887;30;20064;-94
2023/12/28 06:52:46;;;;;;;15.00;3.42;;;;;;;;;;4722688;30;20086;-94
2023/12/28 06:55:12;;;;;;;15.05;3.70;;;;;;;;;;4717416;30;20137;-94
2023/12/28 06:57:38;;;;;;;13.10;3.50;;;;;;;;;;4719444;30;20171;-95
2023/12/28 07:00:07;;;;;;;10.50;4.28;;;;;;;;;;4718745;30;20096;-94
2023/12/28 07:02:33;;;;;;;13.65;4.40;;;;;;;;;;4725614;30;20052;-94
2023/12/28 07:04:59;;;;;;;14.18;4.25;;;;;;;;;;4734934;30;20086;-94
2023/12/28 07:07:25;;;;;;;16.23;3.25;;;;;;;;;;4718619;30;20202;-94
2023/12/28 07:09:51;;;;;;;21.48;4.55;;;;;;;;;;4746938;30;20052;-94
2023/12/28 07:12:20;;;;;;;14.25;4.10;;;;;;;;;;4744751;30;20067;-93
2023/12/28 07:14:46;;;;;;;13.73;3.50;;;;;;;;;;4719409;30;20140;-92
2023/12/28 07:17:17;;;;;;;15.40;3.38;;;;;;;;;;4722332;30;20139;-91
2023/12/28 07:19:43;;;;;;;18.75;4.75;;;;;;;;;;4705936;30;20100;-93
2023/12/28 07:22:09;;;;;;;12.27;3.40;;;;;;;;;;4719016;30;20122;-93
2023/12/28 07:24:35;;;;;;;12.95;3.75;;;;;;;;;;4702987;30;20048;-92
2023/12/28 07:27:01;;;;;;;20.10;4.60;;;;;;;;;;4734969;30;20147;-92
2023/12/28 07:29:27;;;;;;;6.95;3.58;;;;;;;;;;4723344;30;20048;-93
2023/12/28 07:31:54;;;;;;;18.27;3.40;;;;;;;;;;4735159;30;20060;-92
2023/12/28 07:34:20;;;;;;;17.30;5.47;;;;;;;;;;4724882;30;20098;-93
2023/12/28 07:36:46;;;;;;;22.45;4.18;;;;;;;;;;4724650;30;20142;-92
2023/12/28 07:39:12;;;;;;;22.13;4.85;;;;;;;;;;4722359;30;20061;-93
2023/12/28 07:41:38;;;;;;;19.27;4.05;;;;;;;;;;4724484;30;20105;-93
2023/12/28 07:44:05;;;;;;;12.15;3.58;;;;;;;;;;4706775;30;20427;-92
2023/12/28 07:46:31;;;;;;;17.80;5.25;;;;;;;;;;4717357;30;20056;-92
2023/12/28 07:48:57;;;;;;;26.98;4.80;;;;;;;;;;4724612;30;20048;-92
2023/12/28 07:51:23;;;;;;;17.90;4.30;;;;;;;;;;4724347;30;20395;-91
2023/12/28 07:53:49;;;;;;;23.40;4.93;;;;;;;;;;4724708;30;20055;-93
2023/12/28 07:56:15;;;;;;;16.50;5.32;;;;;;;;;;4709997;30;20067;-92
2023/12/28 07:58:41;;;;;;;15.40;4.72;;;;;;;;;;4730459;30;20091;-93
2023/12/28 08:01:11;;;;;;;14.57;4.57;;;;;;;;;;4702580;30;20503;-93
2023/12/28 08:03:37;;;;;;;17.58;4.40;;;;;;;;;;4724458;30;20056;-93
2023/12/28 08:06:04;;;;;;;24.52;3.88;;;;;;;;;;4724171;30;20049;-93
2023/12/28 08:08:30;;;;;;;34.55;5.05;;;;;;;;;;4736605;30;20062;-93
2023/12/28 08:10:56;;;;;;;21.88;5.78;;;;;;;;;;4738383;30;20060;-91
2023/12/28 08:13:22;;;;;;;29.20;6.38;;;;;;;;;;4735487;30;20164;-93
2023/12/28 08:15:48;;;;;;;25.77;4.45;;;;;;;;;;4738573;30;20055;-93
2023/12/28 08:18:14;;;;;;;13.82;3.67;;;;;;;;;;4748706;30;20056;-93
2023/12/28 08:20:40;;;;;;;22.95;5.57;;;;;;;;;;4709654;30;20080;-93
2023/12/28 08:23:06;;;;;;;23.42;6.43;;;;;;;;;;4710291;30;20151;-93
2023/12/28 08:25:32;;;;;;;24.55;5.90;;;;;;;;;;4724385;30;20060;-93
2023/12/28 08:27:58;;;;;;;19.95;4.38;;;;;;;;;;4724475;30;20147;-92
2023/12/28 08:30:24;;;;;;;21.65;4.85;;;;;;;;;;4723781;30;20061;-93
2023/12/28 08:32:50;;;;;;;16.85;4.13;;;;;;;;;;4723952;30;20060;-94
2023/12/28 08:35:17;;;;;;;20.00;4.90;;;;;;;;;;4724424;30;20067;-93
2023/12/28 08:37:43;;;;;;;20.40;6.25;;;;;;;;;;4723977;30;20060;-94
2023/12/28 08:40:09;;;;;;;35.42;5.13;;;;;;;;;;4709169;30;20139;-93
2023/12/28 08:42:35;;;;;;;18.25;5.55;;;;;;;;;;4709771;30;20060;-95
2023/12/28 08:45:01;;;;;;;33.15;5.82;;;;;;;;;;4733009;30;20059;-94
2023/12/28 08:47:27;;;;;;;19.08;4.10;;;;;;;;;;4733539;30;20060;-93
2023/12/28 08:49:53;;;;;;;24.10;5.78;;;;;;;;;;4706591;30;20079;-93
2023/12/28 08:52:20;;;;;;;17.05;5.10;;;;;;;;;;4706581;30;20099;-91
2023/12/28 08:54:46;;;;;;;17.35;4.72;;;;;;;;;;4723848;30;20509;-93
2023/12/28 08:57:12;;;;;;;18.80;5.28;;;;;;;;;;4730203;30;20064;-94
2023/12/28 08:59:38;;;;;;;25.50;7.45;;;;;;;;;;4724651;30;20052;-92
2023/12/28 09:02:04;;;;;;;22.95;6.00;;;;;;;;;;4729717;30;20060;-93
2023/12/28 09:04:31;;;;;;;25.98;6.53;;;;;;;;;;4732284;30;20125;-93
2023/12/28 09:06:57;;;;;;;33.03;5.47;;;;;;;;;;4729140;30;20129;-93
2023/12/28 09:09:23;;;;;;;23.27;5.38;;;;;;;;;;4727944;30;20549;-94
2023/12/28 09:11:50;;;;;;;30.95;6.07;;;;;;;;;;4738586;30;20063;-94
2023/12/28 09:14:16;;;;;;;29.40;6.68;;;;;;;;;;4715615;30;20056;-94
2023/12/28 09:16:44;;;;;;;28.38;7.80;;;;;;;;;;4724954;30;20060;-93
2023/12/28 09:19:10;;;;;;;21.58;5.53;;;;;;;;;;4707735;30;20057;-94
2023/12/28 09:21:36;;;;;;;23.88;5.60;;;;;;;;;;4720802;30;20063;-94
2023/12/28 09:24:02;;;;;;;21.02;6.68;;;;;;;;;;4706117;30;20143;-93
2023/12/28 09:26:32;;;;;;;19.88;5.97;;;;;;;;;;4731549;30;20063;-93
2023/12/28 09:28:59;;;;;;;24.10;5.85;;;;;;;;;;4722831;30;20505;-94
2023/12/28 09:31:25;;;;;;;27.73;6.13;;;;;;;;;;4708546;30;20056;-93
2023/12/28 09:33:52;;;;;;;23.27;5.15;;;;;;;;;;4723355;30;20090;-93
2023/12/28 09:36:18;;;;;;;18.13;4.32;;;;;;;;;;4719551;30;20063;-93
2023/12/28 09:38:45;;;;;;;23.27;5.38;;;;;;;;;;4718054;30;20060;-91
2023/12/28 09:41:16;;;;;;;22.23;4.70;;;;;;;;;;4723156;30;20062;-94
2023/12/28 09:43:50;;;;;;;15.85;5.40;;;;;;;;;;4723224;30;20147;-93
2023/12/28 09:46:16;;;;;;;16.95;4.43;;;;;;;;;;4722613;30;20060;-93
2023/12/28 09:48:42;;;;;;;23.65;4.82;;;;;;;;;;4719517;30;20511;-93
2023/12/28 09:51:10;;;;;;;19.92;5.28;;;;;;;;;;4720878;30;20068;-94
2023/12/28 09:53:37;;;;;;;22.35;5.55;;;;;;;;;;4722384;30;20056;-93
2023/12/28 09:56:03;;;;;;;18.38;4.65;;;;;;;;;;4707628;30;20095;-93
2023/12/28 09:58:32;;;;;;;26.45;4.13;;;;;;;;;;4724256;30;20629;-92
2023/12/28 10:01:01;;;;;;;20.70;4.65;;;;;;;;;;4720293;30;20056;-93
2023/12/28 10:03:27;;;;;;;17.25;4.68;;;;;;;;;;4722485;30;20055;-93
2023/12/28 10:05:53;;;;;;;14.07;5.07;;;;;;;;;;4716962;30;20071;-94
2023/12/28 10:08:20;;;;;;;24.38;5.55;;;;;;;;;;4719737;30;20068;-95
2023/12/28 10:10:54;;;;;;;20.20;5.68;;;;;;;;;;4734225;30;20059;-96
2023/12/28 10:13:22;;;;;;;23.70;5.32;;;;;;;;;;4731451;30;20056;-96
2023/12/28 10:15:51;;;;;;;27.73;4.68;;;;;;;;;;4758482;30;20052;-95
2023/12/28 10:18:20;;;;;;;13.50;4.45;;;;;;;;;;4711691;30;20125;-95
2023/12/28 10:20:50;;;;;;;23.75;4.95;;;;;;;;;;4735547;30;20060;-96
2023/12/28 10:23:16;;;;;;;18.95;4.05;;;;;;;;;;4748326;30;20056;-95
2023/12/28 10:25:52;;;;;;;23.33;4.53;;;;;;;;;;4718944;30;20056;-94
2023/12/28 10:28:19;;;;;;;22.88;4.53;;;;;;;;;;4719509;30;20404;-94
2023/12/28 10:30:46;;;;;;;21.70;5.22;;;;;;;;;;4755085;30;20151;-94
2023/12/28 10:33:15;;;;;;;10.88;4.05;;;;;;;;;;4727667;30;20143;-93
2023/12/28 10:35:43;;;;;;;22.58;5.57;;;;;;;;;;4747261;30;20060;-94
2023/12/28 10:38:11;;;;;;;34.38;5.68;;;;;;;;;;4738969;30;20067;-94
2023/12/28 10:40:39;;;;;;;10.20;2.90;;;;;;;;;;4750930;30;20064;-93
2023/12/28 10:43:07;;;;;;;15.50;3.95;;;;;;;;;;4750770;30;20060;-92
2023/12/28 10:45:35;;;;;;;24.67;4.60;;;;;;;;;;4758650;30;20058;-92
2023/12/28 10:48:11;;;;;;;15.75;4.13;;;;;;;;;;4752245;30;20060;-93
2023/12/28 10:50:37;;;;;;;16.15;3.53;;;;;;;;;;4737117;30;20468;-93
2023/12/28 10:53:09;;;;;;;27.42;4.03;;;;;;;;;;4750619;29;20064;-94
2023/12/28 10:55:49;;;;;;;17.17;4.13;;;;;;;;;;4757404;29;20045;-94
2023/12/28 10:58:21;;;;;;;17.52;4.00;;;;;;;;;;4733662;29;20048;-93
2023/12/28 11:00:54;;;;;;;21.23;4.53;;;;;;;;;;4745524;30;20066;-94
2023/12/28 11:03:24;;;;;;;13.82;3.53;;;;;;;;;;4743770;30;20056;-93
2023/12/28 11:05:50;;;;;;;13.95;5.05;;;;;;;;;;4749437;30;20075;-92
2023/12/28 11:08:17;;;;;;;13.27;3.58;;;;;;;;;;4731071;30;20080;-93
2023/12/28 11:10:43;;;;;;;17.23;4.53;;;;;;;;;;4722630;30;20213;-93
2023/12/28 11:13:09;;;;;;;28.38;5.22;;;;;;;;;;4753165;30;20059;-96
2023/12/28 11:15:36;;;;;;;10.82;4.95;;;;;;;;;;4746311;30;20494;-94
2023/12/28 11:18:02;;;;;;;14.68;4.43;;;;;;;;;;4721184;30;20560;-93
2023/12/28 11:20:30;;;;;;;17.02;4.70;;;;;;;;;;4739483;30;20064;-95
2023/12/28 11:22:56;;;;;;;27.42;4.38;;;;;;;;;;4740328;30;20067;-94
2023/12/28 11:25:22;;;;;;;21.25;4.20;;;;;;;;;;4741384;30;20056;-93
2023/12/28 11:27:49;;;;;;;18.77;4.75;;;;;;;;;;4737406;30;20056;-94
2023/12/28 11:30:15;;;;;;;23.08;5.25;;;;;;;;;;4748434;30;20048;-93
2023/12/28 11:32:44;;;;;;;22.30;4.93;;;;;;;;;;4719403;30;20056;-92
2023/12/28 11:35:14;;;;;;;17.52;4.38;;;;;;;;;;4742674;30;20414;-92
2023/12/28 11:37:41;;;;;;;20.73;4.40;;;;;;;;;;4732408;30;20509;-93
2023/12/28 11:40:15;;;;;;;22.13;5.43;;;;;;;;;;4738110;30;20071;-93
2023/12/28 11:42:51;;;;;;;11.50;3.45;;;;;;;;;;4731795;30;20121;-93
2023/12/28 11:45:18;;;;;;;16.88;4.00;;;;;;;;;;4722491;30;20068;-94
2023/12/28 11:47:44;;;;;;;21.67;4.35;;;;;;;;;;4734327;30;20116;-94
2023/12/28 11:50:12;;;;;;;23.55;3.78;;;;;;;;;;4727941;30;20118;-92
2023/12/28 11:52:40;;;;;;;32.85;5.88;;;;;;;;;;4748936;30;20063;-93
2023/12/28 11:55:08;;;;;;;22.52;4.20;;;;;;;;;;4749903;30;20133;-95
2023/12/28 11:57:38;;;;;;;15.05;4.95;;;;;;;;;;4726647;30;20075;-94
2023/12/28 12:00:10;;;;;;;14.68;4.22;;;;;;;;;;4764246;30;20052;-96
2023/12/28 12:02:47;;;;;;;20.15;5.80;;;;;;;;;;4729209;30;20147;-95
2023/12/28 12:05:14;;;;;;;21.40;5.28;;;;;;;;;;4740754;30;20056;-95
2023/12/28 12:07:46;;;;;;;22.90;4.72;;;;;;;;;;4726757;30;20130;-96
2023/12/28 12:10:16;;;;;;;16.92;4.90;;;;;;;;;;4727555;30;20056;-95
2023/12/28 12:12:48;;;;;;;13.15;4.65;;;;;;;;;;4736359;30;20057;-94
2023/12/28 12:15:25;;;;;;;17.88;5.25;;;;;;;;;;4763503;30;20059;-94
2023/12/28 12:17:57;;;;;;;19.60;4.65;;;;;;;;;;4738527;30;20124;-94
2023/12/28 12:20:24;;;;;;;19.17;4.20;;;;;;;;;;4752678;30;20063;-93
2023/12/28 12:22:50;;;;;;;16.98;5.57;;;;;;;;;;4748513;30;20523;-94
2023/12/28 12:27:53;;;;;;;30.27;6.35;;;;;;;;;;5588220;24;20054;-95
